sensor_id;sensor_type;location;lat;lon;timestamp;pressure;altitude;pressure_sealevel;temperature;humidity
38939;BME280;24211;49.980;19.776;2023-07-13T00:02:09;98972.22;;;24.42;100.00
38939;BME280;24211;49.980;19.776;2023-07-13T00:04:36;98975.28;;;24.41;100.00
38939;BME280;24211;49.980;19.776;2023-07-13T00:07:04;98977.03;;;24.45;100.00
38939;BME280;24211;49.980;19.776;2023-07-13T00:09:31;98969.19;;;24.44;100.00
38939;BME280;24211;49.980;19.776;2023-07-13T00:11:58;98973.34;;;24.41;100.00
38939;BME280;24211;49.980;19.776;2023-07-13T00:14:27;98962.25;;;24.38;100.00
38939;BME280;24211;49.980;19.776;2023-07-13T00:16:55;98956.34;;;24.27;100.00
38939;BME280;24211;49.980;19.776;2023-07-13T00:19:22;98954.88;;;24.04;100.00
38939;BME280;24211;49.980;19.776;2023-07-13T00:21:50;98940.88;;;23.71;100.00
38939;BME280;24211;49.980;19.776;2023-07-13T00:24:18;98940.72;;;23.51;100.00
38939;BME280;24211;49.980;19.776;2023-07-13T00:26:51;98957.63;;;23.30;100.00
38939;BME280;24211;49.980;19.776;2023-07-13T00:29:18;98955.94;;;23.12;100.00
38939;BME280;24211;49.980;19.776;2023-07-13T00:31:48;98964.84;;;23.26;100.00
38939;BME280;24211;49.980;19.776;2023-07-13T00:34:16;98975.97;;;23.38;100.00
38939;BME280;24211;49.980;19.776;2023-07-13T00:36:43;98966.03;;;23.42;100.00
38939;BME280;24211;49.980;19.776;2023-07-13T00:39:10;98968.94;;;23.55;100.00
38939;BME280;24211;49.980;19.776;2023-07-13T00:41:38;98971.03;;;23.66;100.00
38939;BME280;24211;49.980;19.776;2023-07-13T00:44:08;98970.59;;;23.73;100.00
38939;BME280;24211;49.980;19.776;2023-07-13T00:46:36;98980.88;;;23.76;100.00
38939;BME280;24211;49.980;19.776;2023-07-13T00:49:11;98980.88;;;23.76;100.00
38939;BME280;24211;49.980;19.776;2023-07-13T00:51:49;98979.88;;;23.72;100.00
38939;BME280;24211;49.980;19.776;2023-07-13T00:54:46;98971.84;;;23.67;100.00
38939;BME280;24211;49.980;19.776;2023-07-13T00:57:19;98979.22;;;23.66;100.00
38939;BME280;24211;49.980;19.776;2023-07-13T00:59:54;98985.00;;;23.65;100.00
38939;BME280;24211;49.980;19.776;2023-07-13T01:02:25;98983.41;;;23.64;100.00
38939;BME280;24211;49.980;19.776;2023-07-13T01:04:53;98974.72;;;23.62;100.00
38939;BME280;24211;49.980;19.776;2023-07-13T01:07:20;98970.41;;;23.61;100.00
38939;BME280;24211;49.980;19.776;2023-07-13T01:09:47;98980.84;;;23.59;100.00
38939;BME280;24211;49.980;19.776;2023-07-13T01:12:14;98974.41;;;23.55;100.00
38939;BME280;24211;49.980;19.776;2023-07-13T01:14:42;98955.63;;;23.53;100.00
38939;BME280;24211;49.980;19.776;2023-07-13T01:17:11;98946.78;;;23.48;100.00
38939;BME280;24211;49.980;19.776;2023-07-13T01:19:43;98947.59;;;23.48;100.00
38939;BME280;24211;49.980;19.776;2023-07-13T01:22:18;98958.31;;;23.45;100.00
38939;BME280;24211;49.980;19.776;2023-07-13T01:24:47;98960.69;;;23.29;100.00
38939;BME280;24211;49.980;19.776;2023-07-13T01:27:21;98926.88;;;23.38;100.00
38939;BME280;24211;49.980;19.776;2023-07-13T01:29:52;98930.72;;;23.37;100.00
38939;BME280;24211;49.980;19.776;2023-07-13T01:32:23;98937.78;;;23.38;100.00
38939;BME280;24211;49.980;19.776;2023-07-13T01:34:54;98933.94;;;23.39;100.00
38939;BME280;24211;49.980;19.776;2023-07-13T01:37:26;98933.94;;;23.39;100.00
38939;BME280;24211;49.980;19.776;2023-07-13T01:39:53;98921.44;;;23.38;100.00
38939;BME280;24211;49.980;19.776;2023-07-13T01:42:21;98921.06;;;23.31;100.00
38939;BME280;24211;49.980;19.776;2023-07-13T01:45:07;98933.09;;;23.30;100.00
38939;BME280;24211;49.980;19.776;2023-07-13T01:47:34;98917.34;;;23.27;100.00
38939;BME280;24211;49.980;19.776;2023-07-13T01:50:02;98908.22;;;23.23;100.00
38939;BME280;24211;49.980;19.776;2023-07-13T01:52:29;98903.88;;;23.22;100.00
38939;BME280;24211;49.980;19.776;2023-07-13T01:54:58;98905.63;;;23.18;100.00
38939;BME280;24211;49.980;19.776;2023-07-13T01:57:25;98903.53;;;23.15;100.00
38939;BME280;24211;49.980;19.776;2023-07-13T01:59:52;98909.94;;;23.11;100.00
38939;BME280;24211;49.980;19.776;2023-07-13T02:02:19;98906.72;;;23.09;100.00
38939;BME280;24211;49.980;19.776;2023-07-13T02:04:47;98895.97;;;23.04;100.00
38939;BME280;24211;49.980;19.776;2023-07-13T02:07:14;98875.59;;;23.01;100.00
38939;BME280;24211;49.980;19.776;2023-07-13T02:09:42;98866.47;;;22.97;100.00
38939;BME280;24211;49.980;19.776;2023-07-13T02:12:09;98871.72;;;22.94;100.00
38939;BME280;24211;49.980;19.776;2023-07-13T02:14:36;98873.97;;;22.92;100.00
38939;BME280;24211;49.980;19.776;2023-07-13T02:17:09;98863.69;;;22.89;100.00
38939;BME280;24211;49.980;19.776;2023-07-13T02:19:36;98873.31;;;22.86;100.00
38939;BME280;24211;49.980;19.776;2023-07-13T02:22:04;98880.50;;;22.82;100.00
38939;BME280;24211;49.980;19.776;2023-07-13T02:24:31;98878.72;;;22.77;100.00
38939;BME280;24211;49.980;19.776;2023-07-13T02:26:58;98883.66;;;22.75;100.00
38939;BME280;24211;49.980;19.776;2023-07-13T02:29:26;98893.28;;;22.73;100.00
38939;BME280;24211;49.980;19.776;2023-07-13T02:31:53;98895.03;;;22.69;100.00
38939;BME280;24211;49.980;19.776;2023-07-13T02:34:21;98891.81;;;22.67;100.00
38939;BME280;24211;49.980;19.776;2023-07-13T02:36:48;98896.59;;;22.61;100.00
38939;BME280;24211;49.980;19.776;2023-07-13T02:39:16;98887.09;;;22.59;100.00
38939;BME280;24211;49.980;19.776;2023-07-13T02:41:43;98878.75;;;22.55;100.00
38939;BME280;24211;49.980;19.776;2023-07-13T02:44:14;98880.50;;;22.51;100.00
38939;BME280;24211;49.980;19.776;2023-07-13T02:46:41;98881.91;;;22.49;100.00
38939;BME280;24211;49.980;19.776;2023-07-13T02:49:09;98884.16;;;22.47;100.00
38939;BME280;24211;49.980;19.776;2023-07-13T02:51:36;98885.91;;;22.43;100.00
38939;BME280;24211;49.980;19.776;2023-07-13T02:54:04;98893.06;;;22.39;100.00
38939;BME280;24211;49.980;19.776;2023-07-13T02:56:32;98906.66;;;22.30;100.00
38939;BME280;24211;49.980;19.776;2023-07-13T02:58:59;98903.13;;;22.07;100.00
38939;BME280;24211;49.980;19.776;2023-07-13T03:01:31;98903.31;;;21.89;100.00
38939;BME280;24211;49.980;19.776;2023-07-13T03:04:04;98914.75;;;21.99;100.00
38939;BME280;24211;49.980;19.776;2023-07-13T03:06:34;98916.25;;;22.05;100.00
38939;BME280;24211;49.980;19.776;2023-07-13T03:09:03;98922.66;;;22.09;100.00
38939;BME280;24211;49.980;19.776;2023-07-13T03:11:33;98925.88;;;22.11;100.00
38939;BME280;24211;49.980;19.776;2023-07-13T03:14:17;98907.97;;;22.10;100.00
38939;BME280;24211;49.980;19.776;2023-07-13T03:16:44;98911.78;;;22.09;100.00
38939;BME280;24211;49.980;19.776;2023-07-13T03:19:11;98917.22;;;22.09;100.00
38939;BME280;24211;49.980;19.776;2023-07-13T03:21:41;98912.59;;;22.10;100.00
38939;BME280;24211;49.980;19.776;2023-07-13T03:24:09;98915.63;;;22.08;100.00
38939;BME280;24211;49.980;19.776;2023-07-13T03:26:38;98909.38;;;22.08;100.00
38939;BME280;24211;49.980;19.776;2023-07-13T03:29:06;98906.34;;;22.09;100.00
38939;BME280;24211;49.980;19.776;2023-07-13T03:31:37;98914.00;;;22.07;100.00
38939;BME280;24211;49.980;19.776;2023-07-13T03:34:05;98925.72;;;22.08;100.00
38939;BME280;24211;49.980;19.776;2023-07-13T03:36:33;98926.50;;;22.08;100.00
38939;BME280;24211;49.980;19.776;2023-07-13T03:39:04;98917.72;;;22.11;100.00
38939;BME280;24211;49.980;19.776;2023-07-13T03:41:46;98905.13;;;22.16;100.00
38939;BME280;24211;49.980;19.776;2023-07-13T03:44:16;98888.16;;;22.19;100.00
38939;BME280;24211;49.980;19.776;2023-07-13T03:46:47;98873.44;;;22.20;100.00
38939;BME280;24211;49.980;19.776;2023-07-13T03:49:15;98880.50;;;22.21;100.00
38939;BME280;24211;49.980;19.776;2023-07-13T03:51:42;98875.53;;;22.23;100.00
38939;BME280;24211;49.980;19.776;2023-07-13T03:54:09;98887.53;;;22.22;100.00
38939;BME280;24211;49.980;19.776;2023-07-13T03:56:37;98900.16;;;22.18;100.00
38939;BME280;24211;49.980;19.776;2023-07-13T03:59:06;98902.88;;;22.18;100.00
38939;BME280;24211;49.980;19.776;2023-07-13T04:01:34;98908.53;;;22.21;100.00
38939;BME280;24211;49.980;19.776;2023-07-13T04:04:03;98911.72;;;22.23;100.00
38939;BME280;24211;49.980;19.776;2023-07-13T04:06:32;98920.38;;;22.25;100.00
38939;BME280;24211;49.980;19.776;2023-07-13T04:09:02;98918.97;;;22.28;100.00
38939;BME280;24211;49.980;19.776;2023-07-13T04:11:33;98911.28;;;22.30;100.00
38939;BME280;24211;49.980;19.776;2023-07-13T04:14:04;98909.03;;;22.32;100.00
38939;BME280;24211;49.980;19.776;2023-07-13T04:16:31;98908.91;;;22.37;100.00
38939;BME280;24211;49.980;19.776;2023-07-13T04:18:59;98913.13;;;22.43;100.00
38939;BME280;24211;49.980;19.776;2023-07-13T04:21:30;98919.44;;;22.52;100.00
38939;BME280;24211;49.980;19.776;2023-07-13T04:23:58;98936.94;;;22.59;100.00
38939;BME280;24211;49.980;19.776;2023-07-13T04:26:25;98934.91;;;22.65;100.00
38939;BME280;24211;49.980;19.776;2023-07-13T04:28:52;98929.81;;;22.72;100.00
38939;BME280;24211;49.980;19.776;2023-07-13T04:31:20;98934.81;;;22.78;100.00
38939;BME280;24211;49.980;19.776;2023-07-13T04:33:49;98927.19;;;22.89;100.00
38939;BME280;24211;49.980;19.776;2023-07-13T04:36:17;98921.13;;;23.01;100.00
38939;BME280;24211;49.980;19.776;2023-07-13T04:38:44;98930.13;;;23.10;100.00
38939;BME280;24211;49.980;19.776;2023-07-13T04:41:13;98924.22;;;23.16;100.00
38939;BME280;24211;49.980;19.776;2023-07-13T04:43:40;98923.44;;;23.24;100.00
38939;BME280;24211;49.980;19.776;2023-07-13T04:46:11;98909.03;;;23.32;100.00
38939;BME280;24211;49.980;19.776;2023-07-13T04:48:40;98901.72;;;23.42;100.00
38939;BME280;24211;49.980;19.776;2023-07-13T04:51:07;98893.19;;;23.52;100.00
38939;BME280;24211;49.980;19.776;2023-07-13T04:53:34;98895.13;;;23.60;100.00
38939;BME280;24211;49.980;19.776;2023-07-13T04:56:04;98894.81;;;23.70;100.00
38939;BME280;24211;49.980;19.776;2023-07-13T04:58:31;98894.50;;;23.80;100.00
38939;BME280;24211;49.980;19.776;2023-07-13T05:01:04;98901.25;;;23.91;100.00
38939;BME280;24211;49.980;19.776;2023-07-13T05:03:33;98899.31;;;24.00;100.00
38939;BME280;24211;49.980;19.776;2023-07-13T05:06:08;98904.00;;;24.08;100.00
38939;BME280;24211;49.980;19.776;2023-07-13T05:08:38;98893.88;;;24.17;100.00
38939;BME280;24211;49.980;19.776;2023-07-13T05:11:05;98901.91;;;24.22;100.00
38939;BME280;24211;49.980;19.776;2023-07-13T05:13:34;98900.59;;;24.28;100.00
38939;BME280;24211;49.980;19.776;2023-07-13T05:16:05;98897.06;;;24.36;100.00
38939;BME280;24211;49.980;19.776;2023-07-13T05:18:35;98898.81;;;24.41;100.00
38939;BME280;24211;49.980;19.776;2023-07-13T05:21:08;98887.38;;;24.47;100.00
38939;BME280;24211;49.980;19.776;2023-07-13T05:23:37;98889.28;;;24.55;100.00
38939;BME280;24211;49.980;19.776;2023-07-13T05:26:05;98897.78;;;24.62;100.00
38939;BME280;24211;49.980;19.776;2023-07-13T05:28:37;98899.69;;;24.70;100.00
38939;BME280;24211;49.980;19.776;2023-07-13T05:31:07;98903.66;;;24.82;100.00
38939;BME280;24211;49.980;19.776;2023-07-13T05:33:35;98893.06;;;24.89;100.00
38939;BME280;24211;49.980;19.776;2023-07-13T05:36:02;98893.00;;;24.97;100.00
38939;BME280;24211;49.980;19.776;2023-07-13T05:38:29;98892.16;;;25.05;100.00
38939;BME280;24211;49.980;19.776;2023-07-13T05:40:57;98886.44;;;25.19;100.00
38939;BME280;24211;49.980;19.776;2023-07-13T05:43:25;98885.06;;;25.33;100.00
38939;BME280;24211;49.980;19.776;2023-07-13T05:45:56;98878.25;;;25.48;100.00
38939;BME280;24211;49.980;19.776;2023-07-13T05:48:24;98875.56;;;25.60;100.00
38939;BME280;24211;49.980;19.776;2023-07-13T05:50:51;98884.34;;;25.74;100.00
38939;BME280;24211;49.980;19.776;2023-07-13T05:53:19;98891.00;;;25.85;100.00
38939;BME280;24211;49.980;19.776;2023-07-13T05:55:47;98888.00;;;25.99;100.00
38939;BME280;24211;49.980;19.776;2023-07-13T05:58:17;98900.94;;;26.11;100.00
38939;BME280;24211;49.980;19.776;2023-07-13T06:00:46;98892.44;;;26.24;100.00
38939;BME280;24211;49.980;19.776;2023-07-13T06:03:14;98896.38;;;26.35;100.00
38939;BME280;24211;49.980;19.776;2023-07-13T06:05:42;98892.84;;;26.47;100.00
38939;BME280;24211;49.980;19.776;2023-07-13T06:08:09;98896.56;;;26.63;100.00
38939;BME280;24211;49.980;19.776;2023-07-13T06:10:37;98890.44;;;26.78;100.00
38939;BME280;24211;49.980;19.776;2023-07-13T06:13:05;98890.91;;;26.92;100.00
38939;BME280;24211;49.980;19.776;2023-07-13T06:15:32;98888.75;;;27.10;100.00
38939;BME280;24211;49.980;19.776;2023-07-13T06:18:00;98879.00;;;27.24;100.00
38939;BME280;24211;49.980;19.776;2023-07-13T06:20:28;98870.06;;;27.40;100.00
38939;BME280;24211;49.980;19.776;2023-07-13T06:22:56;98872.59;;;27.57;100.00
38939;BME280;24211;49.980;19.776;2023-07-13T06:25:24;98872.75;;;27.76;100.00
38939;BME280;24211;49.980;19.776;2023-07-13T06:27:51;98877.03;;;27.89;100.00
38939;BME280;24211;49.980;19.776;2023-07-13T06:30:18;98878.38;;;28.07;100.00
38939;BME280;24211;49.980;19.776;2023-07-13T06:32:45;98878.50;;;28.26;100.00
38939;BME280;24211;49.980;19.776;2023-07-13T06:35:12;98880.75;;;28.36;100.00
38939;BME280;24211;49.980;19.776;2023-07-13T06:37:41;98880.22;;;28.46;100.00
38939;BME280;24211;49.980;19.776;2023-07-13T06:40:08;98881.91;;;28.51;100.00
38939;BME280;24211;49.980;19.776;2023-07-13T06:42:36;98882.47;;;28.57;100.00
38939;BME280;24211;49.980;19.776;2023-07-13T06:45:06;98889.06;;;28.68;100.00
38939;BME280;24211;49.980;19.776;2023-07-13T06:47:33;98888.81;;;28.88;100.00
38939;BME280;24211;49.980;19.776;2023-07-13T06:50:01;98891.28;;;29.09;100.00
38939;BME280;24211;49.980;19.776;2023-07-13T06:52:30;98900.16;;;29.18;100.00
38939;BME280;24211;49.980;19.776;2023-07-13T06:54:57;98905.03;;;29.40;100.00
38939;BME280;24211;49.980;19.776;2023-07-13T06:57:25;98890.25;;;29.48;100.00
38939;BME280;24211;49.980;19.776;2023-07-13T06:59:52;98893.88;;;29.52;100.00
38939;BME280;24211;49.980;19.776;2023-07-13T07:02:19;98889.56;;;29.70;100.00
38939;BME280;24211;49.980;19.776;2023-07-13T07:04:46;98883.00;;;29.94;100.00
38939;BME280;24211;49.980;19.776;2023-07-13T07:07:13;98878.84;;;30.23;100.00
38939;BME280;24211;49.980;19.776;2023-07-13T07:09:40;98881.75;;;30.49;100.00
38939;BME280;24211;49.980;19.776;2023-07-13T07:12:08;98878.63;;;30.73;100.00
38939;BME280;24211;49.980;19.776;2023-07-13T07:14:35;98873.06;;;30.92;100.00
38939;BME280;24211;49.980;19.776;2023-07-13T07:17:03;98876.84;;;31.07;100.00
38939;BME280;24211;49.980;19.776;2023-07-13T07:19:30;98868.84;;;31.25;100.00
38939;BME280;24211;49.980;19.776;2023-07-13T07:21:58;98872.00;;;31.27;100.00
38939;BME280;24211;49.980;19.776;2023-07-13T07:24:25;98880.72;;;31.29;100.00
38939;BME280;24211;49.980;19.776;2023-07-13T07:26:52;98882.75;;;31.32;100.00
38939;BME280;24211;49.980;19.776;2023-07-13T07:29:22;98870.53;;;31.33;100.00
38939;BME280;24211;49.980;19.776;2023-07-13T07:31:53;98866.59;;;31.34;100.00
38939;BME280;24211;49.980;19.776;2023-07-13T07:34:23;98872.94;;;31.38;100.00
38939;BME280;24211;49.980;19.776;2023-07-13T07:36:51;98874.69;;;31.46;100.00
38939;BME280;24211;49.980;19.776;2023-07-13T07:39:21;98868.28;;;31.42;100.00
38939;BME280;24211;49.980;19.776;2023-07-13T07:41:49;98859.06;;;31.57;100.00
38939;BME280;24211;49.980;19.776;2023-07-13T07:44:19;98859.50;;;31.62;100.00
38939;BME280;24211;49.980;19.776;2023-07-13T07:46:46;98864.44;;;31.76;100.00
38939;BME280;24211;49.980;19.776;2023-07-13T07:49:13;98875.19;;;31.85;100.00
38939;BME280;24211;49.980;19.776;2023-07-13T07:51:41;98873.66;;;31.87;100.00
38939;BME280;24211;49.980;19.776;2023-07-13T07:54:08;98882.38;;;31.89;100.00
38939;BME280;24211;49.980;19.776;2023-07-13T07:56:40;98876.94;;;31.96;100.00
38939;BME280;24211;49.980;19.776;2023-07-13T07:59:10;98875.13;;;32.07;100.00
38939;BME280;24211;49.980;19.776;2023-07-13T08:01:40;98876.47;;;32.20;100.00
38939;BME280;24211;49.980;19.776;2023-07-13T08:04:28;98879.41;;;32.38;100.00
38939;BME280;24211;49.980;19.776;2023-07-13T08:06:58;98877.09;;;32.44;100.00
38939;BME280;24211;49.980;19.776;2023-07-13T08:09:25;98874.75;;;32.46;100.00
38939;BME280;24211;49.980;19.776;2023-07-13T08:11:52;98872.09;;;32.53;100.00
38939;BME280;24211;49.980;19.776;2023-07-13T08:14:24;98869.34;;;32.56;100.00
38939;BME280;24211;49.980;19.776;2023-07-13T08:17:05;98879.25;;;32.61;100.00
38939;BME280;24211;49.980;19.776;2023-07-13T08:19:32;98876.44;;;32.54;100.00
38939;BME280;24211;49.980;19.776;2023-07-13T08:21:59;98877.63;;;32.53;100.00
38939;BME280;24211;49.980;19.776;2023-07-13T08:24:26;98872.16;;;32.63;100.00
38939;BME280;24211;49.980;19.776;2023-07-13T08:26:54;98874.69;;;32.79;100.00
38939;BME280;24211;49.980;19.776;2023-07-13T08:29:21;98868.91;;;32.94;99.68
38939;BME280;24211;49.980;19.776;2023-07-13T08:31:48;98867.81;;;33.06;99.12
38939;BME280;24211;49.980;19.776;2023-07-13T08:34:15;98873.44;;;33.17;99.29
38939;BME280;24211;49.980;19.776;2023-07-13T08:36:44;98871.16;;;33.29;98.63
38939;BME280;24211;49.980;19.776;2023-07-13T08:39:11;98865.63;;;33.29;98.35
38939;BME280;24211;49.980;19.776;2023-07-13T08:41:38;98871.16;;;33.29;90.84
38939;BME280;24211;49.980;19.776;2023-07-13T08:44:20;98869.59;;;33.32;95.39
38939;BME280;24211;49.980;19.776;2023-07-13T08:46:52;98852.97;;;33.35;94.59
38939;BME280;24211;49.980;19.776;2023-07-13T08:49:23;98858.56;;;33.39;93.92
38939;BME280;24211;49.980;19.776;2023-07-13T08:52:02;98852.22;;;33.38;95.03
38939;BME280;24211;49.980;19.776;2023-07-13T08:57:20;98831.63;;;33.39;96.19
38939;BME280;24211;49.980;19.776;2023-07-13T08:59:48;98834.00;;;33.37;96.34
38939;BME280;24211;49.980;19.776;2023-07-13T09:05:04;98823.72;;;33.38;96.51
38939;BME280;24211;49.980;19.776;2023-07-13T09:08:09;98822.50;;;33.35;95.55
38939;BME280;24211;49.980;19.776;2023-07-13T09:10:44;98822.16;;;33.40;93.96
38939;BME280;24211;49.980;19.776;2023-07-13T09:13:34;98816.59;;;33.40;89.18
38939;BME280;24211;49.980;19.776;2023-07-13T09:16:04;98824.50;;;33.38;87.76
38939;BME280;24211;49.980;19.776;2023-07-13T09:18:42;98815.66;;;33.15;90.12
38939;BME280;24211;49.980;19.776;2023-07-13T09:21:24;98818.03;;;33.10;91.49
38939;BME280;24211;49.980;19.776;2023-07-13T09:24:01;98815.97;;;33.03;92.13
38939;BME280;24211;49.980;19.776;2023-07-13T09:26:32;98824.56;;;32.87;91.03
38939;BME280;24211;49.980;19.776;2023-07-13T09:29:16;98821.00;;;32.87;94.79
38939;BME280;24211;49.980;19.776;2023-07-13T09:31:53;98821.66;;;32.73;96.55
38939;BME280;24211;49.980;19.776;2023-07-13T09:34:21;98830.06;;;32.44;100.00
38939;BME280;24211;49.980;19.776;2023-07-13T09:36:48;98826.00;;;32.30;100.00
38939;BME280;24211;49.980;19.776;2023-07-13T09:39:45;98831.00;;;32.18;100.00
38939;BME280;24211;49.980;19.776;2023-07-13T09:42:20;98835.94;;;32.02;100.00
38939;BME280;24211;49.980;19.776;2023-07-13T09:44:59;98836.97;;;31.90;100.00
38939;BME280;24211;49.980;19.776;2023-07-13T09:47:33;98837.81;;;31.61;100.00
38939;BME280;24211;49.980;19.776;2023-07-13T09:50:10;98850.13;;;31.41;100.00
38939;BME280;24211;49.980;19.776;2023-07-13T09:52:46;98853.91;;;31.29;100.00
38939;BME280;24211;49.980;19.776;2023-07-13T09:55:34;98856.94;;;31.21;100.00
38939;BME280;24211;49.980;19.776;2023-07-13T09:58:23;98855.13;;;31.06;100.00
38939;BME280;24211;49.980;19.776;2023-07-13T10:01:01;98859.34;;;30.96;100.00
38939;BME280;24211;49.980;19.776;2023-07-13T10:03:35;98854.75;;;30.84;100.00
38939;BME280;24211;49.980;19.776;2023-07-13T10:06:19;98860.72;;;30.64;100.00
38939;BME280;24211;49.980;19.776;2023-07-13T10:08:50;98861.94;;;30.44;100.00
38939;BME280;24211;49.980;19.776;2023-07-13T10:11:28;98864.56;;;30.17;100.00
38939;BME280;24211;49.980;19.776;2023-07-13T10:14:01;98867.41;;;30.02;100.00
38939;BME280;24211;49.980;19.776;2023-07-13T10:16:33;98855.38;;;29.91;100.00
38939;BME280;24211;49.980;19.776;2023-07-13T10:19:23;98870.63;;;29.69;100.00
38939;BME280;24211;49.980;19.776;2023-07-13T10:22:02;98873.06;;;29.36;100.00
38939;BME280;24211;49.980;19.776;2023-07-13T10:24:38;98874.78;;;29.09;100.00
38939;BME280;24211;49.980;19.776;2023-07-13T10:27:33;98875.69;;;28.82;100.00
38939;BME280;24211;49.980;19.776;2023-07-13T10:30:20;98884.34;;;28.52;100.00
38939;BME280;24211;49.980;19.776;2023-07-13T10:32:50;98890.66;;;28.25;100.00
38939;BME280;24211;49.980;19.776;2023-07-13T10:35:20;98899.41;;;28.15;100.00
38939;BME280;24211;49.980;19.776;2023-07-13T10:38:06;98902.91;;;28.00;100.00
38939;BME280;24211;49.980;19.776;2023-07-13T10:41:06;98911.81;;;27.97;100.00
38939;BME280;24211;49.980;19.776;2023-07-13T10:43:42;98910.66;;;27.98;100.00
38939;BME280;24211;49.980;19.776;2023-07-13T10:46:16;98917.22;;;27.94;100.00
38939;BME280;24211;49.980;19.776;2023-07-13T10:48:48;98917.09;;;27.90;100.00
38939;BME280;24211;49.980;19.776;2023-07-13T10:51:19;98922.38;;;27.83;100.00
38939;BME280;24211;49.980;19.776;2023-07-13T10:54:16;98933.03;;;27.72;100.00
38939;BME280;24211;49.980;19.776;2023-07-13T10:56:50;98928.72;;;27.59;100.00
38939;BME280;24211;49.980;19.776;2023-07-13T10:59:25;98938.44;;;27.45;100.00
38939;BME280;24211;49.980;19.776;2023-07-13T11:02:25;98947.34;;;27.05;100.00
38939;BME280;24211;49.980;19.776;2023-07-13T11:04:56;98962.19;;;26.80;100.00
38939;BME280;24211;49.980;19.776;2023-07-13T11:07:29;98963.13;;;26.63;100.00
38939;BME280;24211;49.980;19.776;2023-07-13T11:09:59;98962.03;;;26.44;100.00
38939;BME280;24211;49.980;19.776;2023-07-13T11:12:50;98961.00;;;26.16;100.00
38939;BME280;24211;49.980;19.776;2023-07-13T11:15:42;98969.34;;;25.98;100.00
38939;BME280;24211;49.980;19.776;2023-07-13T11:18:22;98978.91;;;25.63;100.00
38939;BME280;24211;49.980;19.776;2023-07-13T11:20:51;98990.81;;;25.29;100.00
38939;BME280;24211;49.980;19.776;2023-07-13T11:23:28;99009.50;;;24.55;100.00
38939;BME280;24211;49.980;19.776;2023-07-13T11:25:57;99019.72;;;23.73;100.00
38939;BME280;24211;49.980;19.776;2023-07-13T11:28:27;99036.94;;;23.42;100.00
38939;BME280;24211;49.980;19.776;2023-07-13T11:33:49;99055.00;;;22.77;100.00
38939;BME280;24211;49.980;19.776;2023-07-13T11:36:21;99050.00;;;22.35;100.00
38939;BME280;24211;49.980;19.776;2023-07-13T11:39:09;99053.09;;;22.42;100.00
38939;BME280;24211;49.980;19.776;2023-07-13T11:41:52;99068.03;;;22.08;100.00
38939;BME280;24211;49.980;19.776;2023-07-13T11:44:22;99080.22;;;22.47;100.00
38939;BME280;24211;49.980;19.776;2023-07-13T11:46:56;99078.22;;;22.39;100.00
38939;BME280;24211;49.980;19.776;2023-07-13T11:49:26;99097.13;;;22.22;100.00
38939;BME280;24211;49.980;19.776;2023-07-13T11:51:54;99106.81;;;22.28;100.00
38939;BME280;24211;49.980;19.776;2023-07-13T11:54:46;99114.75;;;22.24;100.00
38939;BME280;24211;49.980;19.776;2023-07-13T11:59:52;99116.41;;;22.83;100.00
38939;BME280;24211;49.980;19.776;2023-07-13T12:02:47;99128.25;;;23.01;100.00
38939;BME280;24211;49.980;19.776;2023-07-13T12:05:20;99123.06;;;22.91;100.00
38939;BME280;24211;49.980;19.776;2023-07-13T12:07:49;99122.63;;;22.97;100.00
38939;BME280;24211;49.980;19.776;2023-07-13T12:10:24;99130.03;;;23.05;100.00
38939;BME280;24211;49.980;19.776;2023-07-13T12:12:57;99130.59;;;23.16;100.00
38939;BME280;24211;49.980;19.776;2023-07-13T12:15:38;99135.00;;;23.25;100.00
38939;BME280;24211;49.980;19.776;2023-07-13T12:18:20;99143.66;;;23.27;100.00
38939;BME280;24211;49.980;19.776;2023-07-13T12:20:50;99135.97;;;23.29;100.00
38939;BME280;24211;49.980;19.776;2023-07-13T12:23:32;99140.81;;;23.32;100.00
38939;BME280;24211;49.980;19.776;2023-07-13T12:26:05;99147.06;;;23.33;100.00
38939;BME280;24211;49.980;19.776;2023-07-13T12:28:38;99143.25;;;23.34;100.00
38939;BME280;24211;49.980;19.776;2023-07-13T12:31:24;99148.41;;;23.35;100.00
38939;BME280;24211;49.980;19.776;2023-07-13T12:34:06;99141.03;;;23.36;100.00
38939;BME280;24211;49.980;19.776;2023-07-13T12:36:38;99137.50;;;23.35;100.00
38939;BME280;24211;49.980;19.776;2023-07-13T12:39:16;99136.38;;;23.36;100.00
38939;BME280;24211;49.980;19.776;2023-07-13T12:41:45;99130.59;;;23.38;100.00
38939;BME280;24211;49.980;19.776;2023-07-13T12:44:17;99137.34;;;23.40;100.00
38939;BME280;24211;49.980;19.776;2023-07-13T12:47:14;99146.03;;;23.42;100.00
38939;BME280;24211;49.980;19.776;2023-07-13T12:49:50;99138.16;;;23.41;100.00
38939;BME280;24211;49.980;19.776;2023-07-13T12:52:34;99145.53;;;23.40;100.00
38939;BME280;24211;49.980;19.776;2023-07-13T12:55:17;99143.31;;;23.42;100.00
38939;BME280;24211;49.980;19.776;2023-07-13T12:57:54;99138.34;;;23.45;100.00
38939;BME280;24211;49.980;19.776;2023-07-13T13:00:30;99130.63;;;23.47;100.00
38939;BME280;24211;49.980;19.776;2023-07-13T13:05:59;99145.97;;;23.56;100.00
38939;BME280;24211;49.980;19.776;2023-07-13T13:08:26;99144.53;;;23.59;100.00
38939;BME280;24211;49.980;19.776;2023-07-13T13:10:54;99149.81;;;23.64;100.00
38939;BME280;24211;49.980;19.776;2023-07-13T13:13:21;99145.84;;;23.70;100.00
38939;BME280;24211;49.980;19.776;2023-07-13T13:15:48;99152.28;;;23.74;100.00
38939;BME280;24211;49.980;19.776;2023-07-13T13:18:22;99148.91;;;23.77;100.00